Latest Weather Observations for Troughton Island

IDW60801

Issued at 8:33 am WST Monday 21 August 2017 (issued every 30 minutes, with the page automatically refreshed every 10 minutes)

About weather observations | Map of weather stations | Latest weather observations for WA | Other Formats
Station Details ID: 001007 Name: TROUGHTON ISLAND Lat: -13.75 Lon: 126.15 Height: 6.0 m
Data from the previous 72 hours. | See also: Recent months at Troughton Island
Date/Time
WST
Temp
°C
App
Temp
°C
Dew
Point
°C
Rel
Hum
%
Delta-T
°C
Wind Press
QNH
hPa
Press
MSL
hPa
Rain since
9am
mm
Dir  Spd
km/h
Gust
km/h
Spd
kts
Gust
kts
21/08:30am 27.9 31.3 23.3 76 3.1 ESE 11 15 6 8 1014.2 1014.1 0.0
21/08:00am 27.4 31.1 23.2 78 2.9 SSE 9 13 5 7 1014.0 1013.9 0.0
21/07:30am 27.0 30.8 23.5 81 2.4 SSE 9 11 5 6 1013.7 1013.6 0.0
21/07:00am 26.3 30.6 23.6 85 1.8 SSE 7 9 4 5 1013.5 1013.4 0.0
21/06:30am 25.1 29.4 23.3 90 1.2 SSW 6 7 3 4 1013.2 1013.1 0.0
21/06:00am 24.2 28.4 22.5 90 1.1 SSW 4 7 2 4 1013.0 1012.9 0.0
21/05:30am 24.5 28.4 22.6 89 1.3 SSW 6 7 3 4 1012.7 1012.6 0.0
21/05:00am 24.6 29.7 22.7 89 1.3 CALM 0 0 0 0 1012.3 1012.2 0.0
21/04:30am 24.8 29.9 22.7 88 1.4 CALM 0 0 0 0 1011.9 1011.8 0.0
21/04:00am 24.6 28.3 22.3 87 1.5 SW 6 9 3 5 1011.9 1011.8 0.0
21/03:30am 24.9 28.2 22.6 87 1.5 W 9 11 5 6 1011.8 1011.7 0.0
21/03:00am 24.8 27.8 22.7 88 1.4 W 11 11 6 6 1011.7 1011.6 0.0
21/02:30am 25.0 28.7 23.2 90 1.2 WSW 9 11 5 6 1011.9 1011.8 0.0
21/02:00am 25.0 28.7 23.2 90 1.2 WSW 9 11 5 6 1011.9 1011.8 0.0
21/01:30am 24.9 28.5 23.0 89 1.3 W 9 11 5 6 1012.0 1011.9 0.0
21/01:00am 24.8 28.7 22.9 89 1.3 WNW 7 9 4 5 1012.3 1012.2 0.0
21/12:30am 25.2 28.9 23.3 89 1.3 W 9 11 5 6 1012.6 1012.5 0.0
21/12:00am 25.3 28.7 23.4 89 1.3 W 11 11 6 6 1012.9 1012.8 0.0
 
Date/Time
WST
Temp
°C
App
Temp
°C
Dew
Point
°C
Rel
Hum
%
Delta-T
°C
Wind Press
QNH
hPa
Press
MSL
hPa
Rain since
9am
mm
Dir  Spd
km/h
Gust
km/h
Spd
kts
Gust
kts
20/11:30pm 24.7 28.0 22.6 88 1.4 NW 9 11 5 6 1013.0 1012.9 0.0
20/11:00pm 24.8 28.4 22.3 86 1.7 NW 7 9 4 5 1013.3 1013.2 0.0
20/10:30pm 26.0 30.2 23.1 84 2.0 N 6 6 3 3 1013.4 1013.3 0.0
20/10:00pm 26.0 29.9 22.9 83 2.1 N 7 9 4 5 1013.5 1013.4 0.0
20/09:30pm 25.7 29.5 22.8 84 2.0 NNE 7 9 4 5 1013.6 1013.5 0.0
20/09:00pm 25.8 29.9 22.9 84 2.0 NNE 6 7 3 4 1013.6 1013.5 0.0
20/08:30pm 26.2 30.2 23.1 83 2.1 N 7 7 4 4 1013.5 1013.4 0.0
20/08:00pm 26.4 30.7 23.3 83 2.1 N 6 7 3 4 1013.4 1013.3 0.0
20/07:30pm 26.1 30.1 22.8 82 2.2 N 6 7 3 4 1013.3 1013.2 0.0
20/07:00pm 26.4 30.5 22.9 81 2.4 N 6 9 3 5 1012.8 1012.7 0.0
20/06:30pm 26.3 29.8 22.8 81 2.4 NNW 9 11 5 6 1012.4 1012.3 0.0
20/06:00pm 26.9 30.0 22.9 79 2.7 NW 11 13 6 7 1012.0 1011.9 0.0
20/05:30pm 27.4 29.9 22.4 74 3.4 WNW 13 15 7 8 1011.8 1011.7 0.0
20/05:00pm 28.1 30.5 22.3 70 3.9 WNW 13 15 7 8 1011.7 1011.6 0.0
20/04:30pm 28.6 31.1 23.1 72 3.8 NW 15 17 8 9 1011.5 1011.4 0.0
20/04:00pm 29.2 31.9 23.4 71 4.0 NW 15 19 8 10 1011.3 1011.2 0.0
20/03:30pm 29.7 31.9 23.9 71 4.0 NW 19 22 10 12 1011.2 1011.1 0.0
20/03:00pm 30.0 32.4 23.7 69 4.4 NW 17 20 9 11 1011.3 1011.2 0.0
20/02:30pm 30.1 31.9 22.5 63 5.2 NW 17 20 9 11 1011.5 1011.4 0.0
20/02:00pm 29.7 31.6 22.7 66 4.8 NW 17 19 9 10 1012.0 1011.9 0.0
20/01:30pm 29.7 31.9 23.2 68 4.5 NW 17 19 9 10 1012.3 1012.2 0.0
20/01:00pm 29.6 32.3 22.8 67 4.6 NW 13 17 7 9 1012.7 1012.6 0.0
20/12:30pm 29.7 32.2 22.4 65 5.0 WNW 13 15 7 8 1013.2 1013.1 0.0
20/12:00pm 29.5 32.3 23.0 68 4.4 WNW 13 15 7 8 1013.6 1013.5 0.0
20/11:30am 29.6 32.3 22.8 67 4.6 WNW 13 13 7 7 1013.9 1013.8 0.0
20/11:00am 29.1 32.6 23.5 72 3.9 WNW 11 15 6 8 1014.3 1014.2 0.0
20/10:30am 29.6 33.2 22.3 65 4.9 WNW 7 11 4 6 1014.7 1014.6 0.0
20/10:00am 29.3 33.0 22.5 67 4.6 NW 7 11 4 6 1015.0 1014.9 0.0
20/09:30am 28.7 32.1 22.7 70 4.1 ENE 9 11 5 6 1015.3 1015.2 0.0
20/09:00am 28.3 31.6 22.5 71 3.9 E 9 11 5 6 1015.3 1015.2 0.0
20/08:30am 28.3 31.1 22.3 70 4.1 E 11 13 6 7 1015.2 1015.1 0.0
20/08:00am 28.1 30.8 22.1 70 4.0 ESE 11 13 6 7 1015.0 1014.9 0.0
20/07:30am 27.6 31.1 22.8 75 3.3 SE 9 13 5 7 1014.8 1014.7 0.0
20/07:00am 26.6 29.6 23.3 82 2.2 SSE 13 17 7 9 1014.5 1014.4 0.0
20/06:30am 26.0 28.6 24.0 89 1.4 S 17 19 9 10 1014.3 1014.2 0.0
20/06:00am 25.6 28.5 23.8 90 1.2 S 15 17 8 9 1014.1 1014.0 0.0
20/05:30am 25.7 28.3 23.9 90 1.2 S 17 20 9 11 1013.7 1013.6 0.0
20/05:00am 25.8 27.7 23.8 89 1.4 SSW 20 24 11 13 1013.2 1013.1 0.0
20/04:30am 26.0 27.6 23.9 88 1.4 SSW 22 26 12 14 1013.0 1012.9 0.0
20/04:00am 25.8 27.7 23.8 89 1.4 SSW 20 24 11 13 1012.9 1012.8 0.0
20/03:30am 25.8 27.5 24.0 90 1.2 SSW 22 24 12 13 1012.9 1012.8 0.0
20/03:00am 25.8 27.3 23.7 88 1.4 SW 22 26 12 14 1012.9 1012.8 0.0
20/02:30am 25.9 28.0 23.8 88 1.4 SW 19 22 10 12 1013.1 1013.0 0.0
20/02:00am 26.0 28.0 23.9 88 1.4 SW 20 24 11 13 1013.2 1013.1 0.0
20/01:30am 26.0 28.0 23.9 88 1.4 SW 20 24 11 13 1013.2 1013.1 0.0
20/01:00am 26.0 28.0 24.0 89 1.4 WSW 20 24 11 13 1013.4 1013.3 0.0
20/12:30am 26.0 28.2 23.9 88 1.4 WSW 19 22 10 12 1013.5 1013.4 0.0
20/12:00am 26.0 28.0 24.0 89 1.4 WSW 20 22 11 12 1013.7 1013.6 0.0
 
Date/Time
WST
Temp
°C
App
Temp
°C
Dew
Point
°C
Rel
Hum
%
Delta-T
°C
Wind Press
QNH
hPa
Press
MSL
hPa
Rain since
9am
mm
Dir  Spd
km/h
Gust
km/h
Spd
kts
Gust
kts
19/11:30pm 26.0 28.2 23.9 88 1.4 WSW 19 20 10 11 1014.0 1013.9 0.0
19/11:00pm 26.2 28.9 24.2 89 1.4 WSW 17 19 9 10 1014.2 1014.1 0.0
19/10:30pm 26.1 29.5 24.0 88 1.4 WSW 13 15 7 8 1014.2 1014.1 0.0
19/10:00pm 26.1 29.5 24.1 89 1.4 WSW 13 15 7 8 1014.3 1014.2 0.0
19/09:30pm 26.1 29.9 24.0 88 1.4 WSW 11 13 6 7 1014.6 1014.5 0.0
19/09:00pm 26.2 29.9 23.9 87 1.6 WSW 11 13 6 7 1014.7 1014.6 0.0
19/08:30pm 26.3 29.8 23.6 85 1.8 WSW 11 13 6 7 1014.5 1014.4 0.0
19/08:00pm 26.2 29.8 23.1 83 2.1 W 9 11 5 6 1014.6 1014.5 0.0
19/07:30pm 26.3 29.6 23.2 83 2.1 WNW 11 13 6 7 1014.2 1014.1 0.0
19/07:00pm 26.4 29.4 23.3 83 2.1 WNW 13 17 7 9 1013.9 1013.8 0.0
19/06:30pm 26.4 28.9 23.1 82 2.2 NW 15 19 8 10 1013.5 1013.4 0.0
19/06:00pm 26.8 28.5 23.1 80 2.5 NW 19 20 10 11 1013.1 1013.0 0.0
19/05:30pm 26.9 28.8 22.7 78 2.8 NW 17 20 9 11 1012.7 1012.6 0.0
19/05:00pm 27.8 30.0 23.2 76 3.1 NW 17 19 9 10 1012.4 1012.3 0.0
19/04:30pm 28.5 30.7 23.2 73 3.6 NW 17 20 9 11 1012.0 1011.9 0.0
19/04:00pm 28.7 30.6 23.4 73 3.6 NW 19 20 10 11 1011.8 1011.7 0.0
19/03:30pm 29.2 31.4 23.2 70 4.1 NW 17 20 9 11 1011.6 1011.5 0.0
19/03:00pm 29.0 30.8 23.2 71 4.0 NW 19 20 10 11 1012.0 1011.9 0.0
19/02:30pm 29.7 31.9 23.2 68 4.5 NW 17 20 9 11 1012.4 1012.3 0.0
19/02:00pm 29.3 32.0 23.5 71 4.0 NW 15 19 8 10 1012.9 1012.8 0.0
19/01:30pm 29.5 32.2 23.4 69 4.2 NNW 15 20 8 11 1013.2 1013.1 0.0
19/01:00pm 29.6 32.6 24.0 72 3.9 NW 15 19 8 10 1013.6 1013.5 0.0
19/12:30pm 29.0 32.0 23.4 72 3.8 N 13 17 7 9 1014.0 1013.9 0.0
19/12:00pm 28.9 31.9 23.3 72 3.8 NNE 13 17 7 9 1014.4 1014.3 0.0
19/11:30am 28.6 31.6 23.3 73 3.6 NNE 13 17 7 9 1014.8 1014.7 0.0
19/11:00am 28.5 31.9 23.4 74 3.5 NNE 11 15 6 8 1015.1 1015.0 0.0
19/10:30am 29.0 32.8 23.4 72 3.8 NNW 9 13 5 7 1015.4 1015.3 0.0
19/10:00am 28.4 32.5 23.3 74 3.5 NW 7 11 4 6 1015.8 1015.7 0.0
19/09:30am 28.2 32.2 23.1 74 3.5 W 7 9 4 5 1016.1 1016.0 0.0
19/09:00am 28.2 31.8 23.1 74 3.5 WSW 9 11 5 6 1016.1 1016.0 0.0
19/08:30am 27.8 32.2 23.4 77 3.0 WSW 6 7 3 4 1016.2 1016.1 0.0
19/08:00am 27.1 32.0 23.1 79 2.7 NNE 2 6 1 3 1016.0 1015.9 0.0
19/07:30am 27.3 31.6 23.7 81 2.5 SSW 7 9 4 5 1015.7 1015.6 0.0
19/07:00am 26.8 30.6 23.5 82 2.3 SSW 9 11 5 6 1015.5 1015.4 0.0
19/06:30am 26.4 30.9 23.9 86 1.7 SSW 7 9 4 5 1015.2 1015.1 0.0
19/06:00am 25.8 29.4 23.7 88 1.4 SW 11 13 6 7 1014.9 1014.8 0.0
19/05:30am 25.9 29.2 23.8 88 1.4 SW 13 15 7 8 1014.5 1014.4 0.0
19/05:00am 25.8 28.6 23.7 88 1.4 SW 15 17 8 9 1014.0 1013.9 0.0
19/04:30am 25.9 28.6 23.4 86 1.7 SW 15 19 8 10 1013.6 1013.5 0.0
19/04:00am 26.1 28.5 23.6 86 1.7 SW 17 20 9 11 1013.3 1013.2 0.0
19/03:30am 26.1 28.4 23.4 85 1.8 SW 17 19 9 10 1013.1 1013.0 0.0
19/03:00am 26.1 28.3 22.6 81 2.4 SW 15 17 8 9 1013.1 1013.0 0.0
19/02:30am 26.2 28.1 22.7 81 2.4 WSW 17 20 9 11 1013.2 1013.1 0.0
19/02:00am 26.1 27.8 23.0 83 2.1 WSW 19 22 10 12 1013.2 1013.1 0.0
19/01:30am 26.2 28.0 23.3 84 2.0 WSW 19 22 10 12 1013.4 1013.3 0.0
19/01:00am 26.1 28.3 23.2 84 2.0 W 17 20 9 11 1013.7 1013.6 0.0
19/12:30am 26.1 28.3 23.2 84 2.0 WSW 17 20 9 11 1014.0 1013.9 0.0
19/12:00am 26.0 28.1 23.1 84 2.0 WSW 17 19 9 10 1014.3 1014.2 0.0
 
Date/Time
WST
Temp
°C
App
Temp
°C
Dew
Point
°C
Rel
Hum
%
Delta-T
°C
Wind Press
QNH
hPa
Press
MSL
hPa
Rain since
9am
mm
Dir  Spd
km/h
Gust
km/h
Spd
kts
Gust
kts
18/11:30pm 26.1 28.5 23.0 83 2.1 WSW 15 17 8 9 1014.4 1014.3 0.0
18/11:00pm 26.0 28.6 23.3 85 1.8 W 15 17 8 9 1014.5 1014.4 0.0
18/10:30pm 25.7 28.8 22.8 84 2.0 W 11 13 6 7 1014.6 1014.5 0.0
18/10:00pm 25.7 29.2 22.8 84 2.0 W 9 13 5 7 1014.7 1014.6 0.0
18/09:30pm 25.6 28.9 22.5 83 2.1 WNW 9 9 5 5 1014.7 1014.6 0.0
18/09:00pm 25.8 29.2 22.7 83 2.1 WNW 9 11 5 6 1014.8 1014.7 0.0
18/08:30pm 25.8 29.0 22.3 81 2.3 NW 9 11 5 6 1014.5 1014.4 0.0
18/08:00pm 26.0 28.9 22.5 81 2.4 NW 11 15 6 8 1014.1 1014.0 0.0
18/07:30pm 26.1 29.2 22.8 82 2.2 NNW 11 13 6 7 1013.8 1013.7 0.0
18/07:00pm 26.4 29.3 22.5 79 2.6 NNW 11 13 6 7 1013.3 1013.2 0.0
18/06:30pm 26.6 28.6 22.2 77 3.0 NNW 15 17 8 9 1012.7 1012.6 0.0
18/06:00pm 26.8 29.0 22.6 78 2.8 NNW 15 17 8 9 1012.4 1012.3 0.0
18/05:30pm 27.2 28.9 22.4 75 3.2 NNW 17 20 9 11 1012.1 1012.0 0.0
18/05:00pm 28.0 29.9 22.7 73 3.6 NNW 17 22 9 12 1011.9 1011.8 0.0
18/04:30pm 28.5 29.8 22.3 69 4.2 NNW 19 24 10 13 1011.8 1011.7 0.0
18/04:00pm 28.6 29.9 22.3 68 4.3 NNW 19 24 10 13 1011.5 1011.4 0.0
18/03:30pm 28.8 30.5 22.3 68 4.4 NNW 17 22 9 12 1011.5 1011.4 0.0
18/03:00pm 29.3 30.9 22.8 68 4.4 NNW 19 20 10 11 1011.6 1011.5 0.0
18/02:30pm 29.4 31.4 22.9 68 4.4 NNW 17 22 9 12 1011.8 1011.7 0.0
18/02:00pm 29.4 31.4 22.9 68 4.4 NNW 17 22 9 12 1011.9 1011.8 0.0
18/01:30pm 28.0 29.8 22.5 72 3.7 N 17 20 9 11 1012.4 1012.3 0.0
18/01:00pm 28.1 29.9 22.6 72 3.7 N 17 22 9 12 1012.6 1012.5 0.0
18/12:30pm 29.5 32.2 23.4 69 4.2 N 15 19 8 10 1012.8 1012.7 0.0
18/12:00pm 29.0 31.7 23.4 72 3.8 N 15 20 8 11 1013.1 1013.0 0.0
18/11:30am 28.4 30.9 23.1 73 3.6 N 15 20 8 11 1013.4 1013.3 0.0
18/11:00am 28.9 31.8 23.1 71 4.0 N 13 17 7 9 1013.7 1013.6 0.0
18/10:30am 28.7 32.3 23.1 71 3.8 WNW 9 13 5 7 1013.8 1013.7 0.0
18/10:00am 28.6 32.3 23.3 73 3.6 W 9 11 5 6 1013.9 1013.8 0.0
18/09:30am 28.6 32.0 23.3 73 3.6 W 11 13 6 7 1014.0 1013.9 0.0
18/09:00am 28.2 31.3 22.9 73 3.6 W 11 13 6 7 1014.0 1013.9 0.0

Other Formats:

Comma delimited format used in spreadsheet applications
http://www.bom.gov.au/fwo/IDW60801/IDW60801.94102.axf

JavaScript Object Notation format (JSON) in row-major order
http://www.bom.gov.au/fwo/IDW60801/IDW60801.94102.json